createdAt,value
2022-08-05T00:01:36.078Z,19.40
2022-08-05T00:04:17.452Z,19.30
2022-08-05T00:06:47.059Z,19.40
2022-08-05T00:09:15.891Z,19.40
2022-08-05T00:11:55.667Z,19.30
2022-08-05T00:14:27.814Z,19.30
2022-08-05T00:16:57.852Z,19.30
2022-08-05T00:19:33.480Z,19.30
2022-08-05T00:22:08.330Z,19.30
2022-08-05T00:24:42.171Z,19.30
2022-08-05T00:27:14.104Z,19.30
2022-08-05T00:29:56.488Z,19.20
2022-08-05T00:32:25.856Z,19.20
2022-08-05T00:35:06.919Z,19.20
2022-08-05T00:37:52.470Z,19.10
2022-08-05T00:40:27.484Z,19.10
2022-08-05T00:42:58.921Z,19.10
2022-08-05T00:45:37.946Z,19.20
2022-08-05T00:48:12.015Z,19.20
2022-08-05T00:50:44.255Z,19.30
2022-08-05T00:54:01.402Z,19.30
2022-08-05T00:56:05.615Z,19.20
2022-08-05T00:58:36.919Z,19.10
2022-08-05T01:01:08.760Z,19.10
2022-08-05T01:03:38.496Z,19.00
2022-08-05T01:06:14.149Z,19.00
2022-08-05T01:08:44.254Z,18.90
2022-08-05T01:11:24.229Z,18.80
2022-08-05T01:14:15.342Z,18.70
2022-08-05T01:16:52.210Z,18.80
2022-08-05T01:19:36.831Z,18.70
2022-08-05T01:22:43.306Z,18.60
2022-08-05T01:25:40.976Z,18.60
2022-08-05T01:28:42.478Z,18.70
2022-08-05T01:31:28.966Z,18.70
2022-08-05T01:34:30.493Z,18.80
2022-08-05T01:37:18.082Z,18.70
2022-08-05T01:39:59.196Z,18.50
2022-08-05T01:42:30.091Z,18.40
2022-08-05T01:45:03.315Z,18.30
2022-08-05T01:47:39.426Z,18.30
2022-08-05T01:50:29.708Z,18.30
2022-08-05T01:53:06.869Z,18.40
2022-08-05T01:55:37.335Z,18.30
2022-08-05T01:58:12.870Z,18.30
2022-08-05T02:00:52.198Z,18.20
2022-08-05T02:03:34.187Z,18.00
2022-08-05T02:06:24.087Z,18.00
2022-08-05T02:08:58.536Z,18.00
2022-08-05T02:11:34.211Z,18.00
2022-08-05T02:14:12.444Z,18.10
2022-08-05T02:16:53.231Z,18.20
2022-08-05T02:19:28.907Z,18.20
2022-08-05T02:22:32.541Z,18.10
2022-08-05T02:25:09.048Z,18.00
2022-08-05T02:27:59.050Z,17.90
2022-08-05T02:30:54.356Z,18.00
2022-08-05T02:33:36.224Z,18.00
2022-08-05T02:36:15.564Z,17.90
2022-08-05T02:38:53.589Z,17.80
2022-08-05T02:41:23.754Z,17.80
2022-08-05T02:44:06.266Z,17.80
2022-08-05T02:46:53.505Z,17.80
2022-08-05T02:49:36.479Z,17.80
2022-08-05T02:52:25.877Z,17.70
2022-08-05T02:55:02.078Z,17.70
2022-08-05T02:58:19.821Z,17.60
2022-08-05T03:00:22.215Z,17.60
2022-08-05T03:02:53.885Z,17.60
2022-08-05T03:06:55.282Z,17.60
2022-08-05T03:08:11.404Z,17.70
2022-08-05T03:10:42.158Z,17.80
2022-08-05T03:13:51.456Z,17.80
2022-08-05T03:16:17.199Z,17.80
2022-08-05T03:18:48.713Z,17.80
2022-08-05T03:21:16.667Z,17.90
2022-08-05T03:23:45.610Z,18.00
2022-08-05T03:26:31.781Z,18.00
2022-08-05T03:29:00.600Z,18.00
2022-08-05T03:31:56.665Z,18.00
2022-08-05T03:34:17.300Z,18.00
2022-08-05T03:36:45.440Z,17.90
2022-08-05T03:39:20.058Z,18.00
2022-08-05T03:41:57.212Z,18.00
2022-08-05T03:44:25.848Z,18.20
2022-08-05T03:46:56.857Z,18.30
2022-08-05T03:49:30.988Z,18.20
2022-08-05T03:52:48.367Z,18.30
2022-08-05T03:56:04.164Z,18.30
2022-08-05T03:58:16.481Z,18.30
2022-08-05T04:00:51.297Z,18.40
2022-08-05T04:03:28.356Z,18.30
2022-08-05T04:05:59.217Z,18.30
2022-08-05T04:08:36.320Z,18.20
2022-08-05T04:11:08.475Z,18.20
2022-08-05T04:13:50.213Z,18.20
2022-08-05T04:16:24.217Z,18.30
2022-08-05T04:18:54.781Z,18.30
2022-08-05T04:22:08.672Z,18.20
2022-08-05T04:24:19.489Z,18.20
2022-08-05T04:26:50.865Z,18.20
2022-08-05T04:29:19.048Z,18.20
2022-08-05T04:31:48.419Z,18.20
2022-08-05T04:34:32.829Z,18.20
2022-08-05T04:37:03.196Z,18.20
2022-08-05T04:39:32.158Z,18.20
2022-08-05T04:42:00.584Z,18.20
2022-08-05T04:44:31.281Z,18.10
2022-08-05T04:46:59.731Z,18.10
2022-08-05T04:49:39.301Z,18.10
2022-08-05T04:52:16.542Z,18.10
2022-08-05T04:54:44.525Z,18.20
2022-08-05T04:57:12.358Z,18.30
2022-08-05T04:59:40.893Z,18.20
2022-08-05T05:02:37.282Z,18.10
2022-08-05T05:05:01.988Z,18.00
2022-08-05T05:07:32.959Z,17.90
2022-08-05T05:10:06.521Z,18.10
2022-08-05T05:12:34.374Z,18.20
2022-08-05T05:15:10.825Z,18.30
2022-08-05T05:17:57.083Z,18.50
2022-08-05T05:20:28.346Z,18.70
2022-08-05T05:22:58.273Z,18.90
2022-08-05T05:25:32.480Z,19.10
2022-08-05T05:28:00.910Z,19.50
2022-08-05T05:30:33.470Z,19.90
2022-08-05T05:33:16.618Z,20.50
2022-08-05T05:35:48.363Z,21.40
2022-08-05T05:38:27.296Z,22.00
2022-08-05T05:40:57.066Z,22.30
2022-08-05T05:43:54.483Z,22.50
2022-08-05T05:46:17.778Z,22.70
2022-08-05T05:48:48.843Z,22.90
2022-08-05T05:51:24.110Z,23.00
2022-08-05T05:53:57.482Z,23.20
2022-08-05T05:56:32.917Z,23.40
2022-08-05T05:59:05.754Z,23.70
2022-08-05T06:01:40.146Z,23.80
2022-08-05T06:04:11.745Z,23.90
2022-08-05T06:06:47.689Z,24.10
2022-08-05T06:09:25.412Z,24.20
2022-08-05T06:12:01.081Z,24.40
2022-08-05T06:14:31.596Z,24.40
2022-08-05T06:17:01.980Z,24.50
2022-08-05T06:19:56.861Z,24.60
2022-08-05T06:22:33.373Z,24.80
2022-08-05T06:25:59.207Z,24.90
2022-08-05T06:28:10.480Z,25.00
2022-08-05T06:30:39.210Z,25.20
2022-08-05T06:33:10.037Z,25.20
2022-08-05T06:36:07.684Z,25.30
2022-08-05T06:38:36.417Z,25.40
2022-08-05T06:41:07.989Z,25.50
2022-08-05T06:43:57.742Z,25.50
2022-08-05T06:46:29.913Z,25.70
2022-08-05T06:48:59.902Z,25.70
2022-08-05T06:51:30.914Z,25.80
2022-08-05T06:54:00.418Z,25.90
2022-08-05T06:56:29.848Z,25.90
2022-08-05T06:58:57.432Z,26.00
2022-08-05T07:01:32.035Z,26.10
2022-08-05T07:04:02.251Z,26.10
2022-08-05T07:06:30.584Z,26.20
2022-08-05T07:09:04.155Z,26.30
2022-08-05T07:11:37.124Z,26.30
2022-08-05T07:14:34.367Z,26.30
2022-08-05T07:17:59.333Z,26.40
2022-08-05T07:22:42.041Z,26.20
2022-08-05T07:25:53.877Z,26.30
2022-08-05T07:28:04.206Z,26.50
2022-08-05T07:30:50.320Z,26.50
2022-08-05T07:33:36.745Z,26.30
2022-08-05T07:36:20.796Z,26.30
2022-08-05T07:38:49.876Z,26.40
2022-08-05T07:42:07.651Z,26.80
2022-08-05T07:44:18.676Z,26.90
2022-08-05T07:46:48.463Z,26.90
2022-08-05T07:49:18.335Z,27.00
2022-08-05T07:51:53.828Z,27.00
2022-08-05T07:54:31.169Z,27.20
2022-08-05T07:57:01.604Z,27.20
2022-08-05T07:59:54.167Z,27.20
2022-08-05T08:02:31.369Z,27.20
2022-08-05T08:05:17.520Z,27.00
2022-08-05T08:07:58.972Z,26.90
2022-08-05T08:10:28.679Z,26.80
2022-08-05T08:12:59.065Z,26.80
2022-08-05T08:16:34.352Z,26.90
2022-08-05T08:18:20.814Z,27.00
2022-08-05T08:21:01.866Z,27.20
2022-08-05T08:24:01.409Z,27.50
2022-08-05T08:26:26.775Z,27.70
2022-08-05T08:29:21.934Z,27.90
2022-08-05T08:31:47.225Z,28.00
2022-08-05T08:34:18.622Z,27.90
2022-08-05T08:36:52.501Z,27.70
2022-08-05T08:39:24.816Z,27.60
2022-08-05T08:41:59.894Z,27.60
2022-08-05T08:45:22.886Z,27.50
2022-08-05T08:48:07.355Z,27.50
2022-08-05T08:50:30.162Z,27.60
2022-08-05T08:53:07.927Z,27.40
2022-08-05T08:56:02.493Z,27.20
2022-08-05T08:58:37.578Z,27.20
2022-08-05T09:01:16.469Z,27.20
2022-08-05T09:03:55.671Z,27.30
2022-08-05T09:06:28.194Z,27.10
2022-08-05T09:09:01.768Z,27.10
2022-08-05T09:11:51.727Z,27.10
2022-08-05T09:14:56.346Z,27.00
2022-08-05T09:17:09.419Z,27.10
2022-08-05T09:20:01.441Z,27.20
2022-08-05T09:22:32.213Z,27.10
2022-08-05T09:25:02.070Z,27.10
2022-08-05T09:28:04.345Z,27.00
2022-08-05T09:30:29.537Z,27.00
2022-08-05T09:33:02.261Z,27.00
2022-08-05T09:35:30.064Z,27.10
2022-08-05T09:38:17.510Z,27.00
2022-08-05T09:40:52.710Z,27.10
2022-08-05T09:43:41.172Z,27.00
2022-08-05T09:46:33.971Z,27.00
2022-08-05T09:49:19.375Z,27.40
2022-08-05T09:51:49.456Z,27.40
2022-08-05T09:54:31.910Z,27.30
2022-08-05T09:57:01.541Z,27.30
2022-08-05T09:59:37.302Z,27.30
2022-08-05T10:02:05.456Z,27.40
2022-08-05T10:04:39.722Z,27.40
2022-08-05T10:07:14.152Z,27.20
2022-08-05T10:10:13.832Z,27.30
2022-08-05T10:12:49.370Z,27.20
2022-08-05T10:15:34.153Z,27.10
2022-08-05T10:18:04.266Z,27.30
2022-08-05T10:20:34.475Z,27.60
2022-08-05T10:23:02.275Z,27.40
2022-08-05T10:25:31.288Z,27.20
2022-08-05T10:28:13.552Z,27.20
2022-08-05T10:32:50.997Z,27.20
2022-08-05T10:33:37.403Z,27.30
2022-08-05T10:36:07.595Z,27.40
2022-08-05T10:38:37.532Z,27.50
2022-08-05T10:41:46.757Z,27.60
2022-08-05T10:44:20.108Z,27.70
2022-08-05T10:46:55.738Z,27.60
2022-08-05T10:49:27.233Z,27.60
2022-08-05T10:52:03.279Z,27.70
2022-08-05T10:55:02.574Z,27.90
2022-08-05T10:57:31.788Z,27.90
2022-08-05T11:00:20.004Z,27.80
2022-08-05T11:03:25.402Z,27.80
2022-08-05T11:06:08.515Z,27.80
2022-08-05T11:08:39.118Z,27.80
2022-08-05T11:11:44.802Z,28.00
2022-08-05T11:17:57.101Z,28.20
2022-08-05T11:20:41.642Z,28.20
2022-08-05T11:24:03.813Z,28.30
2022-08-05T11:26:32.703Z,28.40
2022-08-05T11:29:12.867Z,28.50
2022-08-05T11:31:57.202Z,28.70
2022-08-05T11:35:05.178Z,28.70
2022-08-05T11:38:28.115Z,28.90
2022-08-05T11:41:56.430Z,28.60
2022-08-05T11:47:10.974Z,28.50
2022-08-05T11:49:51.011Z,28.60
2022-08-05T11:52:31.047Z,28.60
2022-08-05T11:55:07.619Z,28.40
2022-08-05T11:58:08.390Z,28.40
2022-08-05T12:00:31.998Z,28.80
2022-08-05T12:03:29.515Z,28.90
2022-08-05T12:06:02.555Z,29.20
2022-08-05T12:08:31.665Z,29.20
2022-08-05T12:11:06.276Z,29.10
2022-08-05T12:13:48.422Z,28.90
2022-08-05T12:16:25.697Z,28.70
2022-08-05T12:18:55.708Z,28.70
2022-08-05T12:21:26.763Z,28.80
2022-08-05T12:24:05.042Z,28.80
2022-08-05T12:26:38.743Z,28.80
2022-08-05T12:29:22.842Z,28.70
2022-08-05T12:31:54.327Z,28.60
2022-08-05T12:34:32.791Z,28.50
2022-08-05T12:37:10.871Z,28.50
2022-08-05T12:39:51.210Z,28.50
2022-08-05T12:42:21.245Z,28.40
2022-08-05T12:44:49.695Z,28.40
2022-08-05T12:47:28.689Z,28.40
2022-08-05T12:50:04.430Z,28.40
2022-08-05T12:52:39.562Z,28.40
2022-08-05T12:55:28.374Z,28.60
2022-08-05T12:58:48.314Z,28.80
2022-08-05T13:02:01.961Z,28.80
2022-08-05T13:03:41.380Z,28.80
2022-08-05T13:06:17.500Z,28.90
2022-08-05T13:08:51.611Z,28.80
2022-08-05T13:12:01.811Z,28.80
2022-08-05T13:14:24.996Z,28.90
2022-08-05T13:17:31.837Z,29.00
2022-08-05T13:20:19.263Z,29.40
2022-08-05T13:22:51.689Z,29.90
2022-08-05T13:25:22.187Z,30.10
2022-08-05T13:28:10.708Z,30.20
2022-08-05T13:30:46.281Z,30.30
2022-08-05T13:34:21.465Z,30.20
2022-08-05T13:36:05.285Z,30.00
2022-08-05T13:38:36.071Z,29.80
2022-08-05T13:41:04.359Z,29.70
2022-08-05T13:43:43.336Z,29.50
2022-08-05T13:46:14.808Z,29.30
2022-08-05T13:48:58.261Z,29.20
2022-08-05T13:51:36.456Z,29.20
2022-08-05T13:54:11.947Z,29.20
2022-08-05T13:56:44.871Z,29.00
2022-08-05T13:59:24.125Z,29.10
2022-08-05T14:01:58.210Z,28.90
2022-08-05T14:04:49.519Z,28.90
2022-08-05T14:07:56.871Z,28.90
2022-08-05T14:10:19.085Z,28.90
2022-08-05T14:12:57.438Z,28.80
2022-08-05T14:16:09.127Z,28.70
2022-08-05T14:18:17.708Z,28.60
2022-08-05T14:20:48.200Z,28.50
2022-08-05T14:23:23.991Z,28.50
2022-08-05T14:25:58.063Z,28.40
2022-08-05T14:28:28.833Z,28.40
2022-08-05T14:30:58.466Z,28.30
2022-08-05T14:33:26.278Z,28.30
2022-08-05T14:35:54.888Z,28.20
2022-08-05T14:38:32.118Z,28.20
2022-08-05T14:41:06.132Z,28.20
2022-08-05T14:44:02.486Z,28.20
2022-08-05T14:46:29.620Z,28.10
2022-08-05T14:49:03.412Z,28.10
2022-08-05T14:51:37.620Z,28.20
2022-08-05T14:54:27.892Z,28.10
2022-08-05T14:56:55.402Z,28.20
2022-08-05T14:59:23.510Z,28.30
2022-08-05T15:01:51.310Z,28.50
2022-08-05T15:04:22.575Z,28.70
2022-08-05T15:06:51.341Z,28.90
2022-08-05T15:09:52.141Z,28.80
2022-08-05T15:12:16.358Z,28.70
2022-08-05T15:14:50.139Z,28.90
2022-08-05T15:17:47.753Z,29.00
2022-08-05T15:20:18.483Z,29.10
2022-08-05T15:22:54.171Z,29.30
2022-08-05T15:25:40.889Z,29.70
2022-08-05T15:28:15.003Z,29.80
2022-08-05T15:30:47.040Z,29.90
2022-08-05T15:33:56.746Z,29.80
2022-08-05T15:36:17.548Z,29.60
2022-08-05T15:40:41.358Z,29.60
2022-08-05T15:41:55.974Z,29.60
2022-08-05T15:44:24.968Z,29.90
2022-08-05T15:46:53.280Z,30.20
2022-08-05T15:49:40.720Z,30.20
2022-08-05T15:52:16.034Z,30.10
2022-08-05T15:54:45.117Z,30.10
2022-08-05T15:57:14.205Z,30.20
2022-08-05T15:59:44.037Z,30.30
2022-08-05T16:02:14.786Z,30.50
2022-08-05T16:04:48.007Z,30.60
2022-08-05T16:07:16.445Z,30.50
2022-08-05T16:09:45.758Z,30.40
2022-08-05T16:12:13.394Z,30.10
2022-08-05T16:14:43.469Z,30.10
2022-08-05T16:17:12.314Z,30.20
2022-08-05T16:20:04.220Z,30.40
2022-08-05T16:22:34.102Z,30.40
2022-08-05T16:25:05.398Z,30.30
2022-08-05T16:28:00.872Z,30.30
2022-08-05T16:30:31.928Z,30.00
2022-08-05T16:33:00.357Z,29.50
2022-08-05T16:35:32.331Z,29.10
2022-08-05T16:38:16.926Z,28.80
2022-08-05T16:40:55.186Z,28.50
2022-08-05T16:43:30.353Z,28.30
2022-08-05T16:46:07.766Z,28.20
2022-08-05T16:48:40.850Z,28.20
2022-08-05T16:51:10.474Z,28.10
2022-08-05T16:54:03.318Z,28.00
2022-08-05T16:56:33.704Z,28.00
2022-08-05T16:59:09.126Z,27.90
2022-08-05T17:01:53.745Z,27.90
2022-08-05T17:04:27.988Z,27.90
2022-08-05T17:07:01.214Z,27.90
2022-08-05T17:09:30.358Z,27.80
2022-08-05T17:12:06.956Z,27.80
2022-08-05T17:14:37.121Z,27.90
2022-08-05T17:17:06.219Z,27.90
2022-08-05T17:19:34.040Z,27.80
2022-08-05T17:22:01.864Z,27.80
2022-08-05T17:24:38.746Z,27.60
2022-08-05T17:27:10.014Z,27.50
2022-08-05T17:29:41.113Z,27.40
2022-08-05T17:32:11.931Z,27.20
2022-08-05T17:34:48.560Z,27.10
2022-08-05T17:37:40.419Z,26.90
2022-08-05T17:40:12.291Z,26.80
2022-08-05T17:42:50.452Z,26.70
2022-08-05T17:45:22.272Z,26.60
2022-08-05T17:47:54.996Z,26.50
2022-08-05T17:50:30.274Z,26.40
2022-08-05T17:53:00.564Z,26.20
2022-08-05T17:55:38.220Z,26.10
2022-08-05T17:58:11.089Z,26.10
2022-08-05T18:00:50.687Z,26.10
2022-08-05T18:06:12.118Z,26.00
2022-08-05T18:08:46.046Z,26.00
2022-08-05T18:11:23.717Z,26.00
2022-08-05T18:13:57.326Z,25.90
2022-08-05T18:16:27.543Z,25.80
2022-08-05T18:18:55.481Z,25.80
2022-08-05T18:21:26.301Z,25.70
2022-08-05T18:23:55.756Z,25.70
2022-08-05T18:26:27.727Z,25.60
2022-08-05T18:29:01.194Z,25.50
2022-08-05T18:31:33.830Z,25.40
2022-08-05T18:34:06.092Z,25.30
2022-08-05T18:36:35.481Z,25.30
2022-08-05T18:39:09.807Z,25.20
2022-08-05T18:41:51.278Z,25.20
2022-08-05T18:44:35.204Z,25.10
2022-08-05T18:47:10.100Z,25.00
2022-08-05T18:50:00.145Z,25.00
2022-08-05T18:52:36.198Z,24.90
2022-08-05T18:55:06.280Z,24.90
2022-08-05T18:57:43.626Z,24.80
2022-08-05T19:00:27.300Z,24.80
2022-08-05T19:03:04.057Z,24.60
2022-08-05T19:06:11.671Z,24.60
2022-08-05T19:08:22.229Z,24.60
2022-08-05T19:10:59.649Z,24.50
2022-08-05T19:13:35.627Z,24.50
2022-08-05T19:16:22.077Z,24.50
2022-08-05T19:18:56.499Z,24.40
2022-08-05T19:21:27.387Z,24.30
2022-08-05T19:24:07.832Z,24.30
2022-08-05T19:26:43.853Z,24.30
2022-08-05T19:29:35.528Z,24.20
2022-08-05T19:32:11.120Z,24.20
2022-08-05T19:34:39.720Z,24.10
2022-08-05T19:37:08.400Z,24.10
2022-08-05T19:39:45.805Z,24.00
2022-08-05T19:42:35.803Z,23.90
2022-08-05T19:45:05.953Z,23.90
2022-08-05T19:47:37.187Z,23.90
2022-08-05T19:50:07.920Z,23.90
2022-08-05T19:52:39.763Z,23.80
2022-08-05T19:56:14.733Z,23.70
2022-08-05T19:58:14.555Z,23.70
2022-08-05T20:00:44.240Z,23.60
2022-08-05T20:03:12.042Z,23.50
2022-08-05T20:05:56.703Z,23.30
2022-08-05T20:08:26.157Z,23.10
2022-08-05T20:10:55.684Z,22.50
2022-08-05T20:13:30.146Z,21.80
2022-08-05T20:16:19.532Z,20.70
2022-08-05T20:18:55.443Z,19.80
2022-08-05T20:21:26.508Z,19.50
2022-08-05T20:24:00.781Z,19.20
2022-08-05T20:26:28.623Z,18.90
2022-08-05T20:28:57.830Z,18.80
2022-08-05T20:31:43.112Z,18.80
2022-08-05T20:34:17.627Z,18.70
2022-08-05T20:36:45.530Z,18.60
2022-08-05T20:39:16.401Z,18.50
2022-08-05T20:41:46.775Z,18.50
2022-08-05T20:44:29.365Z,18.50
2022-08-05T20:47:03.540Z,18.50
2022-08-05T20:49:37.788Z,18.50
2022-08-05T20:52:08.631Z,18.50
2022-08-05T20:54:58.881Z,18.50
2022-08-05T20:57:24.692Z,18.60
2022-08-05T21:00:41.411Z,18.60
2022-08-05T21:03:06.960Z,18.50
2022-08-05T21:05:47.677Z,18.60
2022-08-05T21:08:42.086Z,18.60
2022-08-05T21:11:12.649Z,18.60
2022-08-05T21:13:48.319Z,18.70
2022-08-05T21:16:29.978Z,18.60
2022-08-05T21:19:03.628Z,18.60
2022-08-05T21:21:39.005Z,18.50
2022-08-05T21:24:09.905Z,18.40
2022-08-05T21:26:41.641Z,18.40
2022-08-05T21:29:12.601Z,18.30
2022-08-05T21:31:44.579Z,18.30
2022-08-05T21:34:12.402Z,18.20
2022-08-05T21:36:42.404Z,18.00
2022-08-05T21:39:16.988Z,18.00
2022-08-05T21:42:01.857Z,17.90
2022-08-05T21:44:31.827Z,17.80
2022-08-05T21:47:00.194Z,17.80
2022-08-05T21:50:00.498Z,17.70
2022-08-05T21:52:27.252Z,17.70
2022-08-05T21:54:57.823Z,17.70
2022-08-05T21:57:35.817Z,17.70
2022-08-05T22:00:11.775Z,17.70
2022-08-05T22:02:43.660Z,17.70
2022-08-05T22:05:12.810Z,17.70
2022-08-05T22:07:58.825Z,17.70
2022-08-05T22:10:27.823Z,17.70
2022-08-05T22:12:58.831Z,17.60
2022-08-05T22:16:01.239Z,17.70
2022-08-05T22:18:25.764Z,17.60
2022-08-05T22:20:53.851Z,17.60
2022-08-05T22:24:01.050Z,17.60
2022-08-05T22:26:49.670Z,17.60
2022-08-05T22:29:18.972Z,17.60
2022-08-05T22:31:55.323Z,17.50
2022-08-05T22:34:28.766Z,17.50
2022-08-05T22:36:58.706Z,17.50
2022-08-05T22:39:32.712Z,17.50
2022-08-05T22:42:11.511Z,17.60
2022-08-05T22:44:47.027Z,17.70
2022-08-05T22:47:28.543Z,17.60
2022-08-05T22:50:20.364Z,17.60
2022-08-05T22:52:52.449Z,17.50
2022-08-05T22:55:21.976Z,17.40
2022-08-05T22:57:53.313Z,17.40
2022-08-05T23:00:22.857Z,17.40
2022-08-05T23:02:53.408Z,17.50
2022-08-05T23:05:22.671Z,17.60
2022-08-05T23:07:51.571Z,17.60
2022-08-05T23:10:23.564Z,17.60
2022-08-05T23:12:54.736Z,17.60
2022-08-05T23:15:26.941Z,17.60
2022-08-05T23:18:01.176Z,17.60
2022-08-05T23:20:32.259Z,17.60
2022-08-05T23:23:05.885Z,17.70
2022-08-05T23:25:52.145Z,17.70
2022-08-05T23:28:29.116Z,17.70
2022-08-05T23:31:16.118Z,17.80
2022-08-05T23:34:04.083Z,17.80
2022-08-05T23:36:38.482Z,17.60
2022-08-05T23:39:07.576Z,17.60
2022-08-05T23:41:37.395Z,17.60
2022-08-05T23:44:09.106Z,17.70
2022-08-05T23:46:39.257Z,17.70
2022-08-05T23:49:16.116Z,17.70
2022-08-05T23:52:05.764Z,17.70
2022-08-05T23:54:36.578Z,17.70
2022-08-05T23:57:07.059Z,17.60
